Trout Creek, Michigan
Current Conditions -  °F | °C
As of 9:15 AM on Thursday 27 Nov 2014 (Local Time) from KLNL Reporting Station
Clear Clear  
Wind Chill: -3°   Ceiling: Unl
Heat Index:   Visibility: 10mi
Dew Point:   Wind: 5mph
Humidity: 85%   Direction: 320°NW
Pressure: 30.28"   Gusts: NA
Location:  46.48°N, 89.01°W
Report Text: KLNL 271415Z AUTO 32004KT 10SM CLR M15/M17 A3028 RMK AO2 T11471167
Loading
Personal Weather Stations






























Interactive Weather Map New forecast layout! Learn more

10-Day Weather Forecast

Advertisements
Track Severe Weather on mobile